sensor_id;sensor_type;location;lat;lon;timestamp;temperature;humidity
11454;DHT22;5783;55.174;61.310;2023-01-10T00:02:06;12.30;23.90
11454;DHT22;5783;55.174;61.310;2023-01-10T00:07:06;12.30;23.90
11454;DHT22;5783;55.174;61.310;2023-01-10T00:09:36;12.30;24.00
11454;DHT22;5783;55.174;61.310;2023-01-10T00:12:05;12.30;24.10
11454;DHT22;5783;55.174;61.310;2023-01-10T00:14:54;12.30;24.10
11454;DHT22;5783;55.174;61.310;2023-01-10T00:17:23;12.20;24.10
11454;DHT22;5783;55.174;61.310;2023-01-10T00:19:52;12.30;24.20
11454;DHT22;5783;55.174;61.310;2023-01-10T00:22:21;12.30;24.00
11454;DHT22;5783;55.174;61.310;2023-01-10T00:24:51;12.40;23.80
11454;DHT22;5783;55.174;61.310;2023-01-10T00:27:20;12.50;23.90
11454;DHT22;5783;55.174;61.310;2023-01-10T00:29:50;12.60;23.70
11454;DHT22;5783;55.174;61.310;2023-01-10T00:32:20;12.60;23.50
11454;DHT22;5783;55.174;61.310;2023-01-10T00:34:49;12.60;23.60
11454;DHT22;5783;55.174;61.310;2023-01-10T00:37:19;12.60;23.70
11454;DHT22;5783;55.174;61.310;2023-01-10T00:39:48;12.60;23.60
11454;DHT22;5783;55.174;61.310;2023-01-10T00:42:17;12.50;23.50
11454;DHT22;5783;55.174;61.310;2023-01-10T00:45:06;12.50;23.40
11454;DHT22;5783;55.174;61.310;2023-01-10T00:47:37;12.40;23.60
11454;DHT22;5783;55.174;61.310;2023-01-10T00:50:06;12.40;23.90
11454;DHT22;5783;55.174;61.310;2023-01-10T00:52:37;12.40;23.70
11454;DHT22;5783;55.174;61.310;2023-01-10T00:55:07;12.50;23.70
11454;DHT22;5783;55.174;61.310;2023-01-10T00:57:36;12.50;23.60
11454;DHT22;5783;55.174;61.310;2023-01-10T01:00:06;12.60;23.70
11454;DHT22;5783;55.174;61.310;2023-01-10T01:02:35;12.60;23.70
11454;DHT22;5783;55.174;61.310;2023-01-10T01:05:05;12.60;23.90
11454;DHT22;5783;55.174;61.310;2023-01-10T01:07:34;12.50;23.90
11454;DHT22;5783;55.174;61.310;2023-01-10T01:10:03;12.50;24.10
11454;DHT22;5783;55.174;61.310;2023-01-10T01:12:54;12.40;24.10
11454;DHT22;5783;55.174;61.310;2023-01-10T01:15:24;12.30;24.10
11454;DHT22;5783;55.174;61.310;2023-01-10T01:17:54;12.30;24.30
11454;DHT22;5783;55.174;61.310;2023-01-10T01:20:23;12.20;24.30
11454;DHT22;5783;55.174;61.310;2023-01-10T01:22:52;12.30;24.10
11454;DHT22;5783;55.174;61.310;2023-01-10T01:25:22;12.40;24.10
11454;DHT22;5783;55.174;61.310;2023-01-10T01:27:51;12.40;23.80
11454;DHT22;5783;55.174;61.310;2023-01-10T01:30:20;12.30;23.90
11454;DHT22;5783;55.174;61.310;2023-01-10T01:32:49;12.30;23.90
11454;DHT22;5783;55.174;61.310;2023-01-10T01:35:18;12.30;23.70
11454;DHT22;5783;55.174;61.310;2023-01-10T01:37:47;12.30;23.80
11454;DHT22;5783;55.174;61.310;2023-01-10T01:40:19;12.30;23.70
11454;DHT22;5783;55.174;61.310;2023-01-10T01:42:50;12.20;23.90
11454;DHT22;5783;55.174;61.310;2023-01-10T01:45:40;12.20;24.10
11454;DHT22;5783;55.174;61.310;2023-01-10T01:51:19;12.20;24.30
11454;DHT22;5783;55.174;61.310;2023-01-10T01:54:11;12.20;24.30
11454;DHT22;5783;55.174;61.310;2023-01-10T01:59:16;12.20;24.20
11454;DHT22;5783;55.174;61.310;2023-01-10T02:01:48;12.20;24.30
11454;DHT22;5783;55.174;61.310;2023-01-10T02:04:21;12.30;24.20
11454;DHT22;5783;55.174;61.310;2023-01-10T02:06:51;12.40;24.20
11454;DHT22;5783;55.174;61.310;2023-01-10T02:12:32;12.30;24.10
11454;DHT22;5783;55.174;61.310;2023-01-10T02:15:02;12.30;24.00
11454;DHT22;5783;55.174;61.310;2023-01-10T02:17:32;12.20;24.00
11454;DHT22;5783;55.174;61.310;2023-01-10T02:44:39;11.90;24.30
11454;DHT22;5783;55.174;61.310;2023-01-10T02:47:08;11.90;24.50
11454;DHT22;5783;55.174;61.310;2023-01-10T02:49:57;11.90;24.60
11454;DHT22;5783;55.174;61.310;2023-01-10T02:52:28;11.90;24.60
11454;DHT22;5783;55.174;61.310;2023-01-10T02:55:00;11.90;24.60
11454;DHT22;5783;55.174;61.310;2023-01-10T03:10:08;11.90;24.70
11454;DHT22;5783;55.174;61.310;2023-01-10T03:15:47;11.90;24.40
11454;DHT22;5783;55.174;61.310;2023-01-10T03:21:09;11.80;24.10
11454;DHT22;5783;55.174;61.310;2023-01-10T03:23:40;11.70;24.40
11454;DHT22;5783;55.174;61.310;2023-01-10T03:26:11;11.60;24.60
11454;DHT22;5783;55.174;61.310;2023-01-10T03:29:02;11.40;24.60
11454;DHT22;5783;55.174;61.310;2023-01-10T03:34:22;11.10;24.40
11454;DHT22;5783;55.174;61.310;2023-01-10T03:43:12;10.70;25.10
11454;DHT22;5783;55.174;61.310;2023-01-10T03:48:52;11.00;25.30
11454;DHT22;5783;55.174;61.310;2023-01-10T03:51:23;11.00;25.20
11454;DHT22;5783;55.174;61.310;2023-01-10T03:53:54;11.00;25.00
11454;DHT22;5783;55.174;61.310;2023-01-10T03:56:24;10.90;25.10
11454;DHT22;5783;55.174;61.310;2023-01-10T03:58:54;10.90;25.10
11454;DHT22;5783;55.174;61.310;2023-01-10T04:01:23;11.00;25.20
11454;DHT22;5783;55.174;61.310;2023-01-10T04:03:52;11.10;24.80
11454;DHT22;5783;55.174;61.310;2023-01-10T04:06:21;11.30;24.90
11454;DHT22;5783;55.174;61.310;2023-01-10T04:08:50;11.40;24.90
11454;DHT22;5783;55.174;61.310;2023-01-10T04:11:20;11.50;24.70
11454;DHT22;5783;55.174;61.310;2023-01-10T04:13:49;11.70;24.60
11454;DHT22;5783;55.174;61.310;2023-01-10T04:16:18;11.70;24.40
11454;DHT22;5783;55.174;61.310;2023-01-10T04:18:47;11.80;24.30
11454;DHT22;5783;55.174;61.310;2023-01-10T04:21:16;11.90;24.30
11454;DHT22;5783;55.174;61.310;2023-01-10T04:23:45;11.80;24.20
11454;DHT22;5783;55.174;61.310;2023-01-10T04:26:14;11.80;23.90
11454;DHT22;5783;55.174;61.310;2023-01-10T04:28:44;11.70;24.10
11454;DHT22;5783;55.174;61.310;2023-01-10T04:31:14;11.60;24.10
11454;DHT22;5783;55.174;61.310;2023-01-10T04:33:43;11.50;24.20
11454;DHT22;5783;55.174;61.310;2023-01-10T04:36:12;11.50;24.20
11454;DHT22;5783;55.174;61.310;2023-01-10T04:38:41;11.50;23.90
11454;DHT22;5783;55.174;61.310;2023-01-10T04:41:10;11.60;24.00
11454;DHT22;5783;55.174;61.310;2023-01-10T04:43:40;11.60;22.70
11454;DHT22;5783;55.174;61.310;2023-01-10T04:46:09;11.70;21.60
11454;DHT22;5783;55.174;61.310;2023-01-10T04:48:38;12.00;21.40
11454;DHT22;5783;55.174;61.310;2023-01-10T04:51:07;12.20;20.80
11454;DHT22;5783;55.174;61.310;2023-01-10T04:53:38;12.40;20.50
11454;DHT22;5783;55.174;61.310;2023-01-10T04:58:37;12.80;19.70
11454;DHT22;5783;55.174;61.310;2023-01-10T05:01:08;12.70;19.70
11454;DHT22;5783;55.174;61.310;2023-01-10T05:03:38;12.50;19.80
11454;DHT22;5783;55.174;61.310;2023-01-10T05:06:07;12.40;19.30
11454;DHT22;5783;55.174;61.310;2023-01-10T05:08:36;12.30;18.70
11454;DHT22;5783;55.174;61.310;2023-01-10T05:11:06;12.30;18.70
11454;DHT22;5783;55.174;61.310;2023-01-10T05:13:35;12.40;18.70
11454;DHT22;5783;55.174;61.310;2023-01-10T05:16:04;12.40;18.70
11454;DHT22;5783;55.174;61.310;2023-01-10T05:18:34;12.30;18.40
11454;DHT22;5783;55.174;61.310;2023-01-10T05:23:35;11.90;18.70
11454;DHT22;5783;55.174;61.310;2023-01-10T05:28:55;12.00;19.50
11454;DHT22;5783;55.174;61.310;2023-01-10T05:31:24;12.00;19.20
11454;DHT22;5783;55.174;61.310;2023-01-10T05:33:53;12.00;18.70
11454;DHT22;5783;55.174;61.310;2023-01-10T05:36:22;11.90;18.60
11454;DHT22;5783;55.174;61.310;2023-01-10T05:38:52;11.80;18.70
11454;DHT22;5783;55.174;61.310;2023-01-10T05:41:21;11.80;18.80
11454;DHT22;5783;55.174;61.310;2023-01-10T05:43:50;11.70;18.90
11454;DHT22;5783;55.174;61.310;2023-01-10T05:46:20;11.70;19.00
11454;DHT22;5783;55.174;61.310;2023-01-10T05:48:51;11.80;19.00
11454;DHT22;5783;55.174;61.310;2023-01-10T05:51:21;11.80;19.00
11454;DHT22;5783;55.174;61.310;2023-01-10T05:53:50;11.80;19.20
11454;DHT22;5783;55.174;61.310;2023-01-10T05:56:19;11.80;19.50
11454;DHT22;5783;55.174;61.310;2023-01-10T05:58:48;11.80;19.50
11454;DHT22;5783;55.174;61.310;2023-01-10T06:01:17;11.80;19.30
11454;DHT22;5783;55.174;61.310;2023-01-10T06:03:46;11.90;19.20
11454;DHT22;5783;55.174;61.310;2023-01-10T06:06:15;11.80;18.80
11454;DHT22;5783;55.174;61.310;2023-01-10T06:08:45;11.70;19.10
11454;DHT22;5783;55.174;61.310;2023-01-10T06:11:14;11.80;19.10
11454;DHT22;5783;55.174;61.310;2023-01-10T06:13:43;11.60;19.00
11454;DHT22;5783;55.174;61.310;2023-01-10T06:16:14;11.70;19.40
11454;DHT22;5783;55.174;61.310;2023-01-10T06:18:43;11.80;19.40
11454;DHT22;5783;55.174;61.310;2023-01-10T06:21:12;11.80;19.20
11454;DHT22;5783;55.174;61.310;2023-01-10T06:23:41;11.90;19.20
11454;DHT22;5783;55.174;61.310;2023-01-10T06:26:11;11.90;19.50
11454;DHT22;5783;55.174;61.310;2023-01-10T06:28:40;12.00;20.40
11454;DHT22;5783;55.174;61.310;2023-01-10T06:31:09;12.00;20.10
11454;DHT22;5783;55.174;61.310;2023-01-10T06:33:40;12.10;20.10
11454;DHT22;5783;55.174;61.310;2023-01-10T06:36:09;12.10;19.40
11454;DHT22;5783;55.174;61.310;2023-01-10T06:38:39;12.10;19.10
11454;DHT22;5783;55.174;61.310;2023-01-10T06:41:08;12.10;19.20
11454;DHT22;5783;55.174;61.310;2023-01-10T06:43:57;12.10;18.90
11454;DHT22;5783;55.174;61.310;2023-01-10T06:46:26;12.10;18.90
11454;DHT22;5783;55.174;61.310;2023-01-10T06:48:55;12.10;18.90
11454;DHT22;5783;55.174;61.310;2023-01-10T06:51:24;12.10;19.30
11454;DHT22;5783;55.174;61.310;2023-01-10T06:53:53;12.00;19.00
11454;DHT22;5783;55.174;61.310;2023-01-10T06:56:22;12.00;19.00
11454;DHT22;5783;55.174;61.310;2023-01-10T06:58:51;12.00;19.20
11454;DHT22;5783;55.174;61.310;2023-01-10T07:01:21;12.10;18.90
11454;DHT22;5783;55.174;61.310;2023-01-10T07:03:51;12.10;19.20
11454;DHT22;5783;55.174;61.310;2023-01-10T07:06:20;12.10;19.90
11454;DHT22;5783;55.174;61.310;2023-01-10T07:08:49;12.10;21.00
11454;DHT22;5783;55.174;61.310;2023-01-10T07:11:18;12.10;21.90
11454;DHT22;5783;55.174;61.310;2023-01-10T07:13:47;12.20;22.60
11454;DHT22;5783;55.174;61.310;2023-01-10T07:16:18;12.10;24.40
11454;DHT22;5783;55.174;61.310;2023-01-10T07:18:47;12.20;23.50
11454;DHT22;5783;55.174;61.310;2023-01-10T07:21:16;12.30;22.90
11454;DHT22;5783;55.174;61.310;2023-01-10T07:24:06;12.30;23.00
11454;DHT22;5783;55.174;61.310;2023-01-10T07:26:35;12.30;22.80
11454;DHT22;5783;55.174;61.310;2023-01-10T07:29:04;12.20;23.50
11454;DHT22;5783;55.174;61.310;2023-01-10T07:31:33;12.10;23.30
11454;DHT22;5783;55.174;61.310;2023-01-10T07:34:03;12.00;23.00
11454;DHT22;5783;55.174;61.310;2023-01-10T07:36:32;11.90;22.60
11454;DHT22;5783;55.174;61.310;2023-01-10T07:39:02;11.90;22.10
11454;DHT22;5783;55.174;61.310;2023-01-10T07:41:32;11.80;21.80
11454;DHT22;5783;55.174;61.310;2023-01-10T07:44:01;11.60;21.30
11454;DHT22;5783;55.174;61.310;2023-01-10T07:46:30;11.60;22.30
11454;DHT22;5783;55.174;61.310;2023-01-10T07:48:59;11.70;22.10
11454;DHT22;5783;55.174;61.310;2023-01-10T07:51:28;11.80;23.10
11454;DHT22;5783;55.174;61.310;2023-01-10T07:53:57;11.70;21.90
11454;DHT22;5783;55.174;61.310;2023-01-10T07:56:27;11.60;22.30
11454;DHT22;5783;55.174;61.310;2023-01-10T07:58:56;11.40;21.90
11454;DHT22;5783;55.174;61.310;2023-01-10T08:01:27;11.30;22.00
11454;DHT22;5783;55.174;61.310;2023-01-10T08:04:31;11.20;22.00
11454;DHT22;5783;55.174;61.310;2023-01-10T08:06:29;11.30;22.10
11454;DHT22;5783;55.174;61.310;2023-01-10T08:08:58;11.30;22.00
11454;DHT22;5783;55.174;61.310;2023-01-10T08:11:29;11.30;22.20
11454;DHT22;5783;55.174;61.310;2023-01-10T08:13:58;11.20;21.90
11454;DHT22;5783;55.174;61.310;2023-01-10T08:16:27;11.20;22.00
11454;DHT22;5783;55.174;61.310;2023-01-10T08:18:56;11.30;21.70
11454;DHT22;5783;55.174;61.310;2023-01-10T08:21:25;11.30;21.60
11454;DHT22;5783;55.174;61.310;2023-01-10T08:23:54;11.50;21.40
11454;DHT22;5783;55.174;61.310;2023-01-10T08:26:23;11.60;21.40
11454;DHT22;5783;55.174;61.310;2023-01-10T08:28:54;11.80;21.50
11454;DHT22;5783;55.174;61.310;2023-01-10T08:31:25;11.90;21.50
11454;DHT22;5783;55.174;61.310;2023-01-10T08:33:54;12.00;21.40
11454;DHT22;5783;55.174;61.310;2023-01-10T08:36:24;12.10;21.20
11454;DHT22;5783;55.174;61.310;2023-01-10T08:38:55;12.30;21.10
11454;DHT22;5783;55.174;61.310;2023-01-10T08:41:24;12.30;21.00
11454;DHT22;5783;55.174;61.310;2023-01-10T08:43:53;12.30;20.80
11454;DHT22;5783;55.174;61.310;2023-01-10T08:46:22;12.30;21.10
11454;DHT22;5783;55.174;61.310;2023-01-10T08:48:51;12.20;20.80
11454;DHT22;5783;55.174;61.310;2023-01-10T08:51:21;12.10;21.00
11454;DHT22;5783;55.174;61.310;2023-01-10T08:54:09;12.10;21.10
11454;DHT22;5783;55.174;61.310;2023-01-10T08:56:39;11.80;20.80
11454;DHT22;5783;55.174;61.310;2023-01-10T08:59:08;11.80;21.40
11454;DHT22;5783;55.174;61.310;2023-01-10T09:01:37;11.80;21.80
11454;DHT22;5783;55.174;61.310;2023-01-10T09:04:06;12.00;21.70
11454;DHT22;5783;55.174;61.310;2023-01-10T09:06:36;12.00;21.90
11454;DHT22;5783;55.174;61.310;2023-01-10T09:09:05;12.10;21.80
11454;DHT22;5783;55.174;61.310;2023-01-10T09:11:35;12.20;22.10
11454;DHT22;5783;55.174;61.310;2023-01-10T09:14:04;12.20;22.20
11454;DHT22;5783;55.174;61.310;2023-01-10T09:16:33;12.20;22.20
11454;DHT22;5783;55.174;61.310;2023-01-10T09:19:02;12.20;22.70
11454;DHT22;5783;55.174;61.310;2023-01-10T09:21:33;12.30;22.60
11454;DHT22;5783;55.174;61.310;2023-01-10T09:24:02;12.30;25.10
11454;DHT22;5783;55.174;61.310;2023-01-10T09:26:33;12.40;24.90
11454;DHT22;5783;55.174;61.310;2023-01-10T09:29:02;12.40;24.60
11454;DHT22;5783;55.174;61.310;2023-01-10T09:31:31;12.50;23.80
11454;DHT22;5783;55.174;61.310;2023-01-10T09:34:00;12.50;23.50
11454;DHT22;5783;55.174;61.310;2023-01-10T09:36:29;12.50;23.30
11454;DHT22;5783;55.174;61.310;2023-01-10T09:38:58;12.50;23.00
11454;DHT22;5783;55.174;61.310;2023-01-10T09:53:44;11.90;22.40
11454;DHT22;5783;55.174;61.310;2023-01-10T09:56:15;11.80;22.70
11454;DHT22;5783;55.174;61.310;2023-01-10T09:58:45;11.80;22.80
11454;DHT22;5783;55.174;61.310;2023-01-10T10:01:18;11.90;22.90
11454;DHT22;5783;55.174;61.310;2023-01-10T10:06:56;11.80;22.80
11454;DHT22;5783;55.174;61.310;2023-01-10T10:09:27;11.60;22.50
11454;DHT22;5783;55.174;61.310;2023-01-10T10:24:50;11.60;21.80
11454;DHT22;5783;55.174;61.310;2023-01-10T10:36:37;11.40;22.50
11454;DHT22;5783;55.174;61.310;2023-01-10T10:39:01;11.40;22.10
11454;DHT22;5783;55.174;61.310;2023-01-10T10:40:59;11.20;22.10
11454;DHT22;5783;55.174;61.310;2023-01-10T10:43:32;11.10;21.60
11454;DHT22;5783;55.174;61.310;2023-01-10T10:52:02;11.00;21.30
11454;DHT22;5783;55.174;61.310;2023-01-10T10:54:34;10.90;20.80
11454;DHT22;5783;55.174;61.310;2023-01-10T10:57:04;10.70;20.60
11454;DHT22;5783;55.174;61.310;2023-01-10T10:59:33;10.40;20.30
11454;DHT22;5783;55.174;61.310;2023-01-10T11:02:08;10.20;20.50
11454;DHT22;5783;55.174;61.310;2023-01-10T11:04:33;10.10;20.70
11454;DHT22;5783;55.174;61.310;2023-01-10T11:07:03;10.10;20.70
11454;DHT22;5783;55.174;61.310;2023-01-10T11:09:32;10.10;21.20
11454;DHT22;5783;55.174;61.310;2023-01-10T11:12:24;10.00;20.90
11454;DHT22;5783;55.174;61.310;2023-01-10T11:14:53;10.00;20.90
11454;DHT22;5783;55.174;61.310;2023-01-10T11:17:25;10.10;21.80
11454;DHT22;5783;55.174;61.310;2023-01-10T11:23:05;10.10;20.90
11454;DHT22;5783;55.174;61.310;2023-01-10T11:25:35;10.30;20.70
11454;DHT22;5783;55.174;61.310;2023-01-10T11:28:04;10.30;20.60
11454;DHT22;5783;55.174;61.310;2023-01-10T11:30:34;10.30;20.50
11454;DHT22;5783;55.174;61.310;2023-01-10T11:33:06;10.30;20.60
11454;DHT22;5783;55.174;61.310;2023-01-10T11:35:37;10.30;20.30
11454;DHT22;5783;55.174;61.310;2023-01-10T11:38:27;10.40;20.10
11454;DHT22;5783;55.174;61.310;2023-01-10T11:43:46;10.50;19.60
11454;DHT22;5783;55.174;61.310;2023-01-10T11:51:59;10.30;20.30
11454;DHT22;5783;55.174;61.310;2023-01-10T11:54:29;10.20;20.10
11454;DHT22;5783;55.174;61.310;2023-01-10T11:57:20;10.30;20.30
11454;DHT22;5783;55.174;61.310;2023-01-10T12:02:42;10.30;20.00
11454;DHT22;5783;55.174;61.310;2023-01-10T12:05:31;10.40;20.10
11454;DHT22;5783;55.174;61.310;2023-01-10T12:08:04;10.50;19.90
11454;DHT22;5783;55.174;61.310;2023-01-10T12:10:35;10.50;19.70
11454;DHT22;5783;55.174;61.310;2023-01-10T12:13:26;10.50;19.70
11454;DHT22;5783;55.174;61.310;2023-01-10T12:16:16;10.60;19.80
11454;DHT22;5783;55.174;61.310;2023-01-10T12:18:49;10.70;19.40
11454;DHT22;5783;55.174;61.310;2023-01-10T12:21:55;10.60;19.30
11454;DHT22;5783;55.174;61.310;2023-01-10T12:23:54;10.50;19.40
11454;DHT22;5783;55.174;61.310;2023-01-10T12:26:26;10.30;19.40
11454;DHT22;5783;55.174;61.310;2023-01-10T12:28:59;10.20;19.80
11454;DHT22;5783;55.174;61.310;2023-01-10T12:31:29;10.10;20.50
11454;DHT22;5783;55.174;61.310;2023-01-10T12:34:21;10.00;20.10
11454;DHT22;5783;55.174;61.310;2023-01-10T12:58:18;9.90;19.60
11454;DHT22;5783;55.174;61.310;2023-01-10T13:01:07;9.90;19.80
11454;DHT22;5783;55.174;61.310;2023-01-10T13:03:39;9.90;20.40
11454;DHT22;5783;55.174;61.310;2023-01-10T13:06:30;10.00;20.20
11454;DHT22;5783;55.174;61.310;2023-01-10T13:18:29;10.40;20.70
11454;DHT22;5783;55.174;61.310;2023-01-10T13:20:29;10.50;21.80
11454;DHT22;5783;55.174;61.310;2023-01-10T13:22:59;10.60;22.20
11454;DHT22;5783;55.174;61.310;2023-01-10T13:28:58;10.70;20.50
11454;DHT22;5783;55.174;61.310;2023-01-10T13:31:31;10.80;20.60
11454;DHT22;5783;55.174;61.310;2023-01-10T13:34:21;10.70;22.20
11454;DHT22;5783;55.174;61.310;2023-01-10T13:39:49;10.70;21.60
11454;DHT22;5783;55.174;61.310;2023-01-10T13:42:35;10.50;20.70
11454;DHT22;5783;55.174;61.310;2023-01-10T13:51:23;9.90;19.60
11454;DHT22;5783;55.174;61.310;2023-01-10T13:57:01;9.60;20.10
11454;DHT22;5783;55.174;61.310;2023-01-10T14:02:25;9.60;20.30
11454;DHT22;5783;55.174;61.310;2023-01-10T14:05:34;9.60;20.20
11454;DHT22;5783;55.174;61.310;2023-01-10T14:08:10;9.50;20.20
11454;DHT22;5783;55.174;61.310;2023-01-10T14:10:35;9.60;20.20
11454;DHT22;5783;55.174;61.310;2023-01-10T14:13:06;9.70;20.40
11454;DHT22;5783;55.174;61.310;2023-01-10T14:18:46;9.60;20.50
11454;DHT22;5783;55.174;61.310;2023-01-10T14:24:14;9.20;20.50
11454;DHT22;5783;55.174;61.310;2023-01-10T14:26:38;9.20;20.50
11454;DHT22;5783;55.174;61.310;2023-01-10T14:29:14;9.30;20.60
11454;DHT22;5783;55.174;61.310;2023-01-10T14:32:01;9.40;20.50
11454;DHT22;5783;55.174;61.310;2023-01-10T14:34:33;9.60;20.10
11454;DHT22;5783;55.174;61.310;2023-01-10T14:43:26;9.40;19.90
11454;DHT22;5783;55.174;61.310;2023-01-10T14:46:16;9.40;20.10
11454;DHT22;5783;55.174;61.310;2023-01-10T14:48:47;9.40;20.20
11454;DHT22;5783;55.174;61.310;2023-01-10T14:51:37;9.50;20.20
11454;DHT22;5783;55.174;61.310;2023-01-10T14:54:26;9.70;20.30
11454;DHT22;5783;55.174;61.310;2023-01-10T14:56:55;9.70;21.10
11454;DHT22;5783;55.174;61.310;2023-01-10T15:02:18;9.90;20.60
11454;DHT22;5783;55.174;61.310;2023-01-10T15:07:39;10.00;21.60
11454;DHT22;5783;55.174;61.310;2023-01-10T15:13:18;10.10;22.10
11454;DHT22;5783;55.174;61.310;2023-01-10T15:15:49;10.20;22.90
11454;DHT22;5783;55.174;61.310;2023-01-10T15:18:39;10.20;23.00
11454;DHT22;5783;55.174;61.310;2023-01-10T15:21:10;10.40;23.70
11454;DHT22;5783;55.174;61.310;2023-01-10T15:23:42;10.50;23.40
11454;DHT22;5783;55.174;61.310;2023-01-10T15:26:15;10.60;23.30
11454;DHT22;5783;55.174;61.310;2023-01-10T15:28:45;10.60;23.10
11454;DHT22;5783;55.174;61.310;2023-01-10T15:31:16;10.70;23.10
11454;DHT22;5783;55.174;61.310;2023-01-10T15:33:46;10.70;22.90
11454;DHT22;5783;55.174;61.310;2023-01-10T15:36:19;10.70;24.50
11454;DHT22;5783;55.174;61.310;2023-01-10T15:38:49;10.80;24.90
11454;DHT22;5783;55.174;61.310;2023-01-10T15:41:21;10.90;25.10
11454;DHT22;5783;55.174;61.310;2023-01-10T15:43:51;11.10;25.00
11454;DHT22;5783;55.174;61.310;2023-01-10T15:46:23;11.20;25.10
11454;DHT22;5783;55.174;61.310;2023-01-10T15:49:20;11.30;24.60
11454;DHT22;5783;55.174;61.310;2023-01-10T15:52:02;11.40;25.20
11454;DHT22;5783;55.174;61.310;2023-01-10T15:54:31;11.50;25.10
11454;DHT22;5783;55.174;61.310;2023-01-10T16:00:30;11.40;25.00
11454;DHT22;5783;55.174;61.310;2023-01-10T16:02:59;11.60;24.80
11454;DHT22;5783;55.174;61.310;2023-01-10T16:05:28;11.70;24.90
11454;DHT22;5783;55.174;61.310;2023-01-10T16:07:57;11.70;24.80
11454;DHT22;5783;55.174;61.310;2023-01-10T16:10:28;11.70;24.80
11454;DHT22;5783;55.174;61.310;2023-01-10T16:13:18;11.50;25.00
11454;DHT22;5783;55.174;61.310;2023-01-10T16:16:13;11.40;25.20
11454;DHT22;5783;55.174;61.310;2023-01-10T16:18:39;11.40;25.30
11454;DHT22;5783;55.174;61.310;2023-01-10T16:21:09;11.50;25.20
11454;DHT22;5783;55.174;61.310;2023-01-10T16:23:41;11.60;25.00
11454;DHT22;5783;55.174;61.310;2023-01-10T16:26:12;11.70;24.80
11454;DHT22;5783;55.174;61.310;2023-01-10T16:28:42;11.80;24.60
11454;DHT22;5783;55.174;61.310;2023-01-10T16:31:11;11.80;24.60
11454;DHT22;5783;55.174;61.310;2023-01-10T16:33:41;11.80;24.60
11454;DHT22;5783;55.174;61.310;2023-01-10T16:36:30;11.80;24.80
11454;DHT22;5783;55.174;61.310;2023-01-10T16:39:35;11.80;24.70
11454;DHT22;5783;55.174;61.310;2023-01-10T16:41:33;11.70;24.80
11454;DHT22;5783;55.174;61.310;2023-01-10T16:44:21;11.80;26.60
11454;DHT22;5783;55.174;61.310;2023-01-10T16:46:51;11.80;25.00
11454;DHT22;5783;55.174;61.310;2023-01-10T16:49:20;11.80;24.90
11454;DHT22;5783;55.174;61.310;2023-01-10T16:51:50;11.90;24.70
11454;DHT22;5783;55.174;61.310;2023-01-10T16:54:21;11.90;25.00
11454;DHT22;5783;55.174;61.310;2023-01-10T16:57:10;11.90;24.90
11454;DHT22;5783;55.174;61.310;2023-01-10T16:59:41;11.80;25.30
11454;DHT22;5783;55.174;61.310;2023-01-10T17:02:14;11.80;25.00
11454;DHT22;5783;55.174;61.310;2023-01-10T17:04:43;11.80;25.00
11454;DHT22;5783;55.174;61.310;2023-01-10T17:07:12;11.80;24.90
11454;DHT22;5783;55.174;61.310;2023-01-10T17:09:42;11.80;25.00
11454;DHT22;5783;55.174;61.310;2023-01-10T17:12:13;11.90;24.60
11454;DHT22;5783;55.174;61.310;2023-01-10T17:14:44;12.00;24.40
11454;DHT22;5783;55.174;61.310;2023-01-10T17:17:14;12.10;24.30
11454;DHT22;5783;55.174;61.310;2023-01-10T17:19:43;12.00;24.20
11454;DHT22;5783;55.174;61.310;2023-01-10T17:22:14;12.10;24.20
11454;DHT22;5783;55.174;61.310;2023-01-10T17:24:43;12.10;24.10
11454;DHT22;5783;55.174;61.310;2023-01-10T17:27:12;12.10;24.00
11454;DHT22;5783;55.174;61.310;2023-01-10T17:29:41;12.20;24.10
11454;DHT22;5783;55.174;61.310;2023-01-10T17:32:10;12.20;23.90
11454;DHT22;5783;55.174;61.310;2023-01-10T17:34:41;12.20;24.20
11454;DHT22;5783;55.174;61.310;2023-01-10T17:39:59;12.00;24.10
11454;DHT22;5783;55.174;61.310;2023-01-10T17:42:28;12.00;24.40
11454;DHT22;5783;55.174;61.310;2023-01-10T17:44:57;12.10;24.30
11454;DHT22;5783;55.174;61.310;2023-01-10T17:47:28;12.20;24.20
11454;DHT22;5783;55.174;61.310;2023-01-10T17:49:57;12.10;24.30
11454;DHT22;5783;55.174;61.310;2023-01-10T17:52:26;12.10;24.50
11454;DHT22;5783;55.174;61.310;2023-01-10T17:54:56;12.00;24.60
11454;DHT22;5783;55.174;61.310;2023-01-10T17:57:25;12.00;24.50
11454;DHT22;5783;55.174;61.310;2023-01-10T17:59:54;11.90;24.30
11454;DHT22;5783;55.174;61.310;2023-01-10T18:02:23;11.90;24.40
11454;DHT22;5783;55.174;61.310;2023-01-10T18:07:23;12.00;24.50
11454;DHT22;5783;55.174;61.310;2023-01-10T18:09:52;12.00;24.40
11454;DHT22;5783;55.174;61.310;2023-01-10T18:12:25;12.10;24.30
11454;DHT22;5783;55.174;61.310;2023-01-10T18:17:25;12.30;23.90
11454;DHT22;5783;55.174;61.310;2023-01-10T18:19:54;12.30;23.80
11454;DHT22;5783;55.174;61.310;2023-01-10T18:22:23;12.30;23.80
11454;DHT22;5783;55.174;61.310;2023-01-10T18:25:12;12.20;24.00
11454;DHT22;5783;55.174;61.310;2023-01-10T18:27:43;12.20;23.70
11454;DHT22;5783;55.174;61.310;2023-01-10T18:30:13;12.00;23.40
11454;DHT22;5783;55.174;61.310;2023-01-10T18:32:44;12.00;23.90
11454;DHT22;5783;55.174;61.310;2023-01-10T18:35:13;12.00;23.70
11454;DHT22;5783;55.174;61.310;2023-01-10T18:37:45;12.00;24.10
11454;DHT22;5783;55.174;61.310;2023-01-10T18:40:14;12.00;24.10
11454;DHT22;5783;55.174;61.310;2023-01-10T18:42:43;12.10;24.10
11454;DHT22;5783;55.174;61.310;2023-01-10T18:45:14;12.20;24.30
11454;DHT22;5783;55.174;61.310;2023-01-10T18:47:43;12.20;24.00
11454;DHT22;5783;55.174;61.310;2023-01-10T18:50:12;12.20;23.60
11454;DHT22;5783;55.174;61.310;2023-01-10T18:52:41;12.20;24.30
11454;DHT22;5783;55.174;61.310;2023-01-10T18:55:10;12.10;24.30
11454;DHT22;5783;55.174;61.310;2023-01-10T18:57:41;12.10;24.50
11454;DHT22;5783;55.174;61.310;2023-01-10T19:00:10;12.20;24.20
11454;DHT22;5783;55.174;61.310;2023-01-10T19:02:40;12.20;24.10
11454;DHT22;5783;55.174;61.310;2023-01-10T19:05:09;12.10;24.10
11454;DHT22;5783;55.174;61.310;2023-01-10T19:07:40;12.20;24.10
11454;DHT22;5783;55.174;61.310;2023-01-10T19:10:09;12.20;24.00
11454;DHT22;5783;55.174;61.310;2023-01-10T19:12:38;12.20;24.20
11454;DHT22;5783;55.174;61.310;2023-01-10T19:15:09;12.20;24.10
11454;DHT22;5783;55.174;61.310;2023-01-10T19:17:38;12.30;23.90
11454;DHT22;5783;55.174;61.310;2023-01-10T19:20:08;12.30;23.90
11454;DHT22;5783;55.174;61.310;2023-01-10T19:22:38;12.20;24.10
11454;DHT22;5783;55.174;61.310;2023-01-10T19:25:07;12.00;24.20
11454;DHT22;5783;55.174;61.310;2023-01-10T19:27:37;11.90;24.30
11454;DHT22;5783;55.174;61.310;2023-01-10T19:30:07;12.00;24.10
11454;DHT22;5783;55.174;61.310;2023-01-10T19:32:36;12.00;24.10
11454;DHT22;5783;55.174;61.310;2023-01-10T19:35:06;12.10;24.20